sensor_id;sensor_type;location;lat;lon;timestamp;P1;durP1;ratioP1;P2;durP2;ratioP2
74328;SDS011;62745;51.060;13.786;2022-10-26T00:00:44;8.85;;;3.13;;
74328;SDS011;62745;51.060;13.786;2022-10-26T00:03:09;9.52;;;3.70;;
74328;SDS011;62745;51.060;13.786;2022-10-26T00:05:34;6.47;;;3.50;;
74328;SDS011;62745;51.060;13.786;2022-10-26T00:08:00;6.53;;;3.75;;
74328;SDS011;62745;51.060;13.786;2022-10-26T00:10:26;7.28;;;3.25;;
74328;SDS011;62745;51.060;13.786;2022-10-26T00:12:51;5.33;;;3.00;;
74328;SDS011;62745;51.060;13.786;2022-10-26T00:15:17;6.82;;;2.72;;
74328;SDS011;62745;51.060;13.786;2022-10-26T00:17:43;8.00;;;3.92;;
74328;SDS011;62745;51.060;13.786;2022-10-26T00:20:09;6.45;;;3.17;;
74328;SDS011;62745;51.060;13.786;2022-10-26T00:22:35;7.45;;;3.17;;
74328;SDS011;62745;51.060;13.786;2022-10-26T00:25:00;6.38;;;3.22;;
74328;SDS011;62745;51.060;13.786;2022-10-26T00:27:25;5.93;;;3.57;;
74328;SDS011;62745;51.060;13.786;2022-10-26T00:29:51;6.13;;;3.00;;
74328;SDS011;62745;51.060;13.786;2022-10-26T00:32:16;9.90;;;3.87;;
74328;SDS011;62745;51.060;13.786;2022-10-26T00:34:41;7.68;;;3.28;;
74328;SDS011;62745;51.060;13.786;2022-10-26T00:37:07;5.32;;;2.88;;
74328;SDS011;62745;51.060;13.786;2022-10-26T00:39:33;7.25;;;3.53;;
74328;SDS011;62745;51.060;13.786;2022-10-26T00:41:58;9.98;;;3.30;;
74328;SDS011;62745;51.060;13.786;2022-10-26T00:50:11;6.80;;;3.33;;
74328;SDS011;62745;51.060;13.786;2022-10-26T00:52:59;6.90;;;3.45;;
74328;SDS011;62745;51.060;13.786;2022-10-26T00:55:28;6.80;;;3.22;;
74328;SDS011;62745;51.060;13.786;2022-10-26T00:57:58;6.00;;;3.20;;
74328;SDS011;62745;51.060;13.786;2022-10-26T01:00:26;6.53;;;3.53;;
74328;SDS011;62745;51.060;13.786;2022-10-26T01:02:52;5.63;;;3.10;;
74328;SDS011;62745;51.060;13.786;2022-10-26T01:05:19;11.18;;;3.35;;
74328;SDS011;62745;51.060;13.786;2022-10-26T01:07:45;15.20;;;3.28;;
74328;SDS011;62745;51.060;13.786;2022-10-26T01:10:12;5.38;;;2.75;;
74328;SDS011;62745;51.060;13.786;2022-10-26T01:12:38;5.07;;;2.58;;
74328;SDS011;62745;51.060;13.786;2022-10-26T01:15:03;6.03;;;2.60;;
74328;SDS011;62745;51.060;13.786;2022-10-26T01:17:34;4.70;;;2.17;;
74328;SDS011;62745;51.060;13.786;2022-10-26T01:20:25;5.03;;;2.58;;
74328;SDS011;62745;51.060;13.786;2022-10-26T01:31:02;7.80;;;2.70;;
74328;SDS011;62745;51.060;13.786;2022-10-26T01:33:38;6.60;;;2.80;;
74328;SDS011;62745;51.060;13.786;2022-10-26T01:36:11;12.15;;;3.20;;
74328;SDS011;62745;51.060;13.786;2022-10-26T01:38:51;5.60;;;2.88;;
74328;SDS011;62745;51.060;13.786;2022-10-26T01:41:26;9.88;;;3.30;;
74328;SDS011;62745;51.060;13.786;2022-10-26T01:43:56;5.82;;;3.22;;
74328;SDS011;62745;51.060;13.786;2022-10-26T01:46:34;4.60;;;2.65;;
74328;SDS011;62745;51.060;13.786;2022-10-26T01:49:05;7.57;;;3.10;;
74328;SDS011;62745;51.060;13.786;2022-10-26T01:51:35;7.28;;;2.80;;
74328;SDS011;62745;51.060;13.786;2022-10-26T01:54:02;7.05;;;2.80;;
74328;SDS011;62745;51.060;13.786;2022-10-26T01:56:28;7.43;;;2.97;;
74328;SDS011;62745;51.060;13.786;2022-10-26T01:59:03;6.68;;;2.42;;
74328;SDS011;62745;51.060;13.786;2022-10-26T02:01:43;4.95;;;2.78;;
74328;SDS011;62745;51.060;13.786;2022-10-26T02:12:19;10.48;;;3.17;;
74328;SDS011;62745;51.060;13.786;2022-10-26T02:15:10;7.97;;;3.20;;
74328;SDS011;62745;51.060;13.786;2022-10-26T02:17:55;8.10;;;3.58;;
74328;SDS011;62745;51.060;13.786;2022-10-26T02:20:32;8.85;;;3.50;;
74328;SDS011;62745;51.060;13.786;2022-10-26T02:23:00;5.72;;;3.33;;
74328;SDS011;62745;51.060;13.786;2022-10-26T02:25:30;7.40;;;3.20;;
74328;SDS011;62745;51.060;13.786;2022-10-26T02:28:08;10.20;;;3.60;;
74328;SDS011;62745;51.060;13.786;2022-10-26T02:30:37;7.78;;;3.53;;
74328;SDS011;62745;51.060;13.786;2022-10-26T02:33:06;15.18;;;3.53;;
74328;SDS011;62745;51.060;13.786;2022-10-26T02:35:34;14.07;;;3.65;;
74328;SDS011;62745;51.060;13.786;2022-10-26T02:38:03;9.23;;;3.63;;
74328;SDS011;62745;51.060;13.786;2022-10-26T02:40:31;9.30;;;3.70;;
74328;SDS011;62745;51.060;13.786;2022-10-26T02:42:59;9.18;;;3.40;;
74328;SDS011;62745;51.060;13.786;2022-10-26T02:45:30;7.65;;;3.60;;
74328;SDS011;62745;51.060;13.786;2022-10-26T02:48:00;10.38;;;3.90;;
74328;SDS011;62745;51.060;13.786;2022-10-26T02:50:31;9.05;;;3.75;;
74328;SDS011;62745;51.060;13.786;2022-10-26T02:53:06;8.48;;;3.70;;
74328;SDS011;62745;51.060;13.786;2022-10-26T02:55:52;9.57;;;3.75;;
74328;SDS011;62745;51.060;13.786;2022-10-26T02:58:28;9.27;;;4.63;;
74328;SDS011;62745;51.060;13.786;2022-10-26T03:00:58;7.50;;;4.10;;
74328;SDS011;62745;51.060;13.786;2022-10-26T03:03:24;7.05;;;3.88;;
74328;SDS011;62745;51.060;13.786;2022-10-26T03:05:49;7.22;;;4.38;;
74328;SDS011;62745;51.060;13.786;2022-10-26T03:08:15;7.22;;;4.10;;
74328;SDS011;62745;51.060;13.786;2022-10-26T03:10:41;11.73;;;4.43;;
74328;SDS011;62745;51.060;13.786;2022-10-26T03:13:08;8.32;;;4.20;;
74328;SDS011;62745;51.060;13.786;2022-10-26T03:15:34;6.80;;;3.85;;
74328;SDS011;62745;51.060;13.786;2022-10-26T03:18:00;8.93;;;3.90;;
74328;SDS011;62745;51.060;13.786;2022-10-26T03:20:25;8.20;;;4.40;;
74328;SDS011;62745;51.060;13.786;2022-10-26T03:22:51;9.23;;;4.20;;
74328;SDS011;62745;51.060;13.786;2022-10-26T03:25:16;10.23;;;5.27;;
74328;SDS011;62745;51.060;13.786;2022-10-26T03:27:41;11.40;;;3.88;;
74328;SDS011;62745;51.060;13.786;2022-10-26T03:30:08;7.80;;;3.95;;
74328;SDS011;62745;51.060;13.786;2022-10-26T03:32:34;6.72;;;3.78;;
74328;SDS011;62745;51.060;13.786;2022-10-26T03:34:59;7.50;;;4.20;;
74328;SDS011;62745;51.060;13.786;2022-10-26T03:37:24;9.60;;;4.33;;
74328;SDS011;62745;51.060;13.786;2022-10-26T03:39:50;9.65;;;4.35;;
74328;SDS011;62745;51.060;13.786;2022-10-26T03:42:15;10.17;;;4.20;;
74328;SDS011;62745;51.060;13.786;2022-10-26T03:44:41;9.10;;;4.20;;
74328;SDS011;62745;51.060;13.786;2022-10-26T03:47:06;8.95;;;4.00;;
74328;SDS011;62745;51.060;13.786;2022-10-26T03:49:31;7.97;;;3.90;;
74328;SDS011;62745;51.060;13.786;2022-10-26T03:51:57;7.87;;;4.20;;
74328;SDS011;62745;51.060;13.786;2022-10-26T03:54:22;10.77;;;4.30;;
74328;SDS011;62745;51.060;13.786;2022-10-26T03:56:47;10.35;;;4.28;;
74328;SDS011;62745;51.060;13.786;2022-10-26T03:59:13;10.35;;;4.72;;
74328;SDS011;62745;51.060;13.786;2022-10-26T04:01:38;8.15;;;4.15;;
74328;SDS011;62745;51.060;13.786;2022-10-26T04:04:04;9.75;;;4.70;;
74328;SDS011;62745;51.060;13.786;2022-10-26T04:06:29;8.68;;;4.85;;
74328;SDS011;62745;51.060;13.786;2022-10-26T04:08:54;8.27;;;4.40;;
74328;SDS011;62745;51.060;13.786;2022-10-26T04:11:25;10.43;;;4.43;;
74328;SDS011;62745;51.060;13.786;2022-10-26T04:13:51;9.50;;;4.32;;
74328;SDS011;62745;51.060;13.786;2022-10-26T04:16:16;7.80;;;4.13;;
74328;SDS011;62745;51.060;13.786;2022-10-26T04:18:41;8.87;;;4.23;;
74328;SDS011;62745;51.060;13.786;2022-10-26T04:21:07;9.13;;;4.40;;
74328;SDS011;62745;51.060;13.786;2022-10-26T04:23:32;9.43;;;4.27;;
74328;SDS011;62745;51.060;13.786;2022-10-26T04:25:57;8.43;;;4.50;;
74328;SDS011;62745;51.060;13.786;2022-10-26T04:28:22;11.27;;;4.57;;
74328;SDS011;62745;51.060;13.786;2022-10-26T04:30:48;7.82;;;4.35;;
74328;SDS011;62745;51.060;13.786;2022-10-26T04:33:13;12.40;;;4.43;;
74328;SDS011;62745;51.060;13.786;2022-10-26T04:35:38;10.47;;;5.17;;
74328;SDS011;62745;51.060;13.786;2022-10-26T04:38:04;11.20;;;5.10;;
74328;SDS011;62745;51.060;13.786;2022-10-26T04:40:31;10.73;;;4.90;;
74328;SDS011;62745;51.060;13.786;2022-10-26T04:42:58;8.30;;;4.68;;
74328;SDS011;62745;51.060;13.786;2022-10-26T04:45:23;8.80;;;4.45;;
74328;SDS011;62745;51.060;13.786;2022-10-26T04:48:11;8.82;;;4.40;;
74328;SDS011;62745;51.060;13.786;2022-10-26T04:50:37;13.75;;;5.32;;
74328;SDS011;62745;51.060;13.786;2022-10-26T04:53:03;9.10;;;5.03;;
74328;SDS011;62745;51.060;13.786;2022-10-26T04:55:30;9.02;;;4.65;;
74328;SDS011;62745;51.060;13.786;2022-10-26T04:57:55;11.10;;;4.60;;
74328;SDS011;62745;51.060;13.786;2022-10-26T05:00:20;8.80;;;4.90;;
74328;SDS011;62745;51.060;13.786;2022-10-26T05:02:45;7.40;;;4.37;;
74328;SDS011;62745;51.060;13.786;2022-10-26T05:05:11;10.90;;;4.37;;
74328;SDS011;62745;51.060;13.786;2022-10-26T05:07:36;12.68;;;5.18;;
74328;SDS011;62745;51.060;13.786;2022-10-26T05:10:02;10.23;;;4.60;;
74328;SDS011;62745;51.060;13.786;2022-10-26T05:12:27;9.00;;;4.22;;
74328;SDS011;62745;51.060;13.786;2022-10-26T05:14:52;9.98;;;4.40;;
74328;SDS011;62745;51.060;13.786;2022-10-26T05:17:22;10.77;;;4.43;;
74328;SDS011;62745;51.060;13.786;2022-10-26T05:19:48;8.85;;;4.68;;
74328;SDS011;62745;51.060;13.786;2022-10-26T05:22:19;6.50;;;4.00;;
74328;SDS011;62745;51.060;13.786;2022-10-26T05:24:44;9.90;;;5.05;;
74328;SDS011;62745;51.060;13.786;2022-10-26T05:27:09;7.70;;;4.00;;
74328;SDS011;62745;51.060;13.786;2022-10-26T05:29:35;10.77;;;3.87;;
74328;SDS011;62745;51.060;13.786;2022-10-26T05:32:00;8.90;;;4.40;;
74328;SDS011;62745;51.060;13.786;2022-10-26T05:34:25;8.57;;;4.30;;
74328;SDS011;62745;51.060;13.786;2022-10-26T05:36:51;8.13;;;4.73;;
74328;SDS011;62745;51.060;13.786;2022-10-26T05:39:17;9.93;;;4.55;;
74328;SDS011;62745;51.060;13.786;2022-10-26T05:41:42;9.03;;;4.70;;
74328;SDS011;62745;51.060;13.786;2022-10-26T05:44:07;11.00;;;5.33;;
74328;SDS011;62745;51.060;13.786;2022-10-26T05:46:33;10.80;;;5.27;;
74328;SDS011;62745;51.060;13.786;2022-10-26T05:48:58;11.33;;;5.57;;
74328;SDS011;62745;51.060;13.786;2022-10-26T05:51:23;11.40;;;5.30;;
74328;SDS011;62745;51.060;13.786;2022-10-26T05:53:50;8.90;;;4.35;;
74328;SDS011;62745;51.060;13.786;2022-10-26T05:56:18;9.73;;;3.92;;
74328;SDS011;62745;51.060;13.786;2022-10-26T05:58:52;11.02;;;4.43;;
74328;SDS011;62745;51.060;13.786;2022-10-26T06:06:51;7.68;;;4.40;;
74328;SDS011;62745;51.060;13.786;2022-10-26T06:09:20;10.00;;;4.50;;
74328;SDS011;62745;51.060;13.786;2022-10-26T06:11:46;10.20;;;4.18;;
74328;SDS011;62745;51.060;13.786;2022-10-26T06:14:12;10.68;;;4.60;;
74328;SDS011;62745;51.060;13.786;2022-10-26T06:19:55;12.73;;;5.25;;
74328;SDS011;62745;51.060;13.786;2022-10-26T06:22:43;8.85;;;5.65;;
74328;SDS011;62745;51.060;13.786;2022-10-26T06:30:56;10.20;;;5.00;;
74328;SDS011;62745;51.060;13.786;2022-10-26T06:33:22;11.25;;;4.53;;
74328;SDS011;62745;51.060;13.786;2022-10-26T06:38:38;10.07;;;3.85;;
74328;SDS011;62745;51.060;13.786;2022-10-26T06:41:08;9.02;;;4.53;;
74328;SDS011;62745;51.060;13.786;2022-10-26T06:43:36;11.32;;;5.20;;
74328;SDS011;62745;51.060;13.786;2022-10-26T06:46:09;11.85;;;5.18;;
74328;SDS011;62745;51.060;13.786;2022-10-26T06:54:21;8.13;;;4.88;;
74328;SDS011;62745;51.060;13.786;2022-10-26T06:56:49;12.20;;;4.80;;
74328;SDS011;62745;51.060;13.786;2022-10-26T06:59:24;8.80;;;4.55;;
74328;SDS011;62745;51.060;13.786;2022-10-26T07:01:56;9.05;;;5.03;;
74328;SDS011;62745;51.060;13.786;2022-10-26T07:04:21;12.33;;;5.63;;
74328;SDS011;62745;51.060;13.786;2022-10-26T07:06:46;9.87;;;5.00;;
74328;SDS011;62745;51.060;13.786;2022-10-26T07:09:12;7.97;;;4.13;;
74328;SDS011;62745;51.060;13.786;2022-10-26T07:11:37;11.40;;;5.03;;
74328;SDS011;62745;51.060;13.786;2022-10-26T07:14:02;9.70;;;5.00;;
74328;SDS011;62745;51.060;13.786;2022-10-26T07:16:28;10.60;;;5.47;;
74328;SDS011;62745;51.060;13.786;2022-10-26T07:18:56;10.97;;;5.53;;
74328;SDS011;62745;51.060;13.786;2022-10-26T07:21:21;11.38;;;6.07;;
74328;SDS011;62745;51.060;13.786;2022-10-26T07:23:46;10.47;;;5.27;;
74328;SDS011;62745;51.060;13.786;2022-10-26T07:26:11;9.63;;;5.43;;
74328;SDS011;62745;51.060;13.786;2022-10-26T07:28:37;13.30;;;5.50;;
74328;SDS011;62745;51.060;13.786;2022-10-26T07:31:02;13.77;;;6.27;;
74328;SDS011;62745;51.060;13.786;2022-10-26T07:33:29;10.73;;;5.70;;
74328;SDS011;62745;51.060;13.786;2022-10-26T07:35:54;9.13;;;5.55;;
74328;SDS011;62745;51.060;13.786;2022-10-26T07:38:20;10.63;;;5.50;;
74328;SDS011;62745;51.060;13.786;2022-10-26T07:40:45;9.25;;;5.50;;
74328;SDS011;62745;51.060;13.786;2022-10-26T07:43:11;10.43;;;5.72;;
74328;SDS011;62745;51.060;13.786;2022-10-26T07:45:36;10.77;;;4.97;;
74328;SDS011;62745;51.060;13.786;2022-10-26T07:48:01;11.63;;;6.37;;
74328;SDS011;62745;51.060;13.786;2022-10-26T07:50:27;10.13;;;5.15;;
74328;SDS011;62745;51.060;13.786;2022-10-26T07:52:52;10.85;;;5.97;;
74328;SDS011;62745;51.060;13.786;2022-10-26T07:55:18;10.75;;;5.28;;
74328;SDS011;62745;51.060;13.786;2022-10-26T07:57:44;10.85;;;4.97;;
74328;SDS011;62745;51.060;13.786;2022-10-26T08:00:10;10.68;;;5.70;;
74328;SDS011;62745;51.060;13.786;2022-10-26T08:02:35;11.05;;;5.97;;
74328;SDS011;62745;51.060;13.786;2022-10-26T08:05:01;9.73;;;5.80;;
74328;SDS011;62745;51.060;13.786;2022-10-26T08:07:27;10.18;;;5.63;;
74328;SDS011;62745;51.060;13.786;2022-10-26T08:09:52;7.75;;;4.82;;
74328;SDS011;62745;51.060;13.786;2022-10-26T08:12:18;10.75;;;5.78;;
74328;SDS011;62745;51.060;13.786;2022-10-26T08:14:44;12.18;;;5.22;;
74328;SDS011;62745;51.060;13.786;2022-10-26T08:17:10;9.07;;;4.72;;
74328;SDS011;62745;51.060;13.786;2022-10-26T08:19:35;10.18;;;4.65;;
74328;SDS011;62745;51.060;13.786;2022-10-26T08:22:01;9.65;;;5.28;;
74328;SDS011;62745;51.060;13.786;2022-10-26T08:24:26;8.85;;;5.35;;
74328;SDS011;62745;51.060;13.786;2022-10-26T08:26:51;8.93;;;4.67;;
74328;SDS011;62745;51.060;13.786;2022-10-26T08:29:17;9.70;;;4.93;;
74328;SDS011;62745;51.060;13.786;2022-10-26T08:31:43;10.02;;;5.18;;
74328;SDS011;62745;51.060;13.786;2022-10-26T08:34:08;10.13;;;5.85;;
74328;SDS011;62745;51.060;13.786;2022-10-26T08:36:33;8.63;;;4.77;;
74328;SDS011;62745;51.060;13.786;2022-10-26T08:38:59;11.13;;;5.95;;
74328;SDS011;62745;51.060;13.786;2022-10-26T08:41:37;10.48;;;4.88;;
74328;SDS011;62745;51.060;13.786;2022-10-26T08:44:10;9.75;;;5.07;;
74328;SDS011;62745;51.060;13.786;2022-10-26T08:46:45;11.02;;;4.32;;
74328;SDS011;62745;51.060;13.786;2022-10-26T08:49:22;9.13;;;4.05;;
74328;SDS011;62745;51.060;13.786;2022-10-26T08:52:00;10.02;;;4.50;;
74328;SDS011;62745;51.060;13.786;2022-10-26T08:56:52;7.50;;;3.73;;
74328;SDS011;62745;51.060;13.786;2022-10-26T08:59:29;8.65;;;3.80;;
74328;SDS011;62745;51.060;13.786;2022-10-26T09:01:56;11.23;;;4.35;;
74328;SDS011;62745;51.060;13.786;2022-10-26T09:04:24;7.40;;;4.50;;
74328;SDS011;62745;51.060;13.786;2022-10-26T09:09:45;7.57;;;3.38;;
74328;SDS011;62745;51.060;13.786;2022-10-26T09:14:59;6.47;;;3.58;;
74328;SDS011;62745;51.060;13.786;2022-10-26T09:17:47;9.05;;;4.03;;
74328;SDS011;62745;51.060;13.786;2022-10-26T09:20:28;9.25;;;3.80;;
74328;SDS011;62745;51.060;13.786;2022-10-26T09:25:43;9.13;;;4.32;;
74328;SDS011;62745;51.060;13.786;2022-10-26T09:28:16;10.07;;;3.72;;
74328;SDS011;62745;51.060;13.786;2022-10-26T09:30:43;8.80;;;4.00;;
74328;SDS011;62745;51.060;13.786;2022-10-26T09:33:16;8.23;;;4.07;;
74328;SDS011;62745;51.060;13.786;2022-10-26T09:35:49;8.05;;;4.13;;
74328;SDS011;62745;51.060;13.786;2022-10-26T09:38:50;8.35;;;4.80;;
74328;SDS011;62745;51.060;13.786;2022-10-26T09:44:05;10.98;;;3.92;;
74328;SDS011;62745;51.060;13.786;2022-10-26T09:49:16;7.25;;;4.20;;
74328;SDS011;62745;51.060;13.786;2022-10-26T09:51:44;8.20;;;4.03;;
74328;SDS011;62745;51.060;13.786;2022-10-26T09:54:15;8.60;;;4.20;;
74328;SDS011;62745;51.060;13.786;2022-10-26T09:57:04;7.93;;;4.35;;
74328;SDS011;62745;51.060;13.786;2022-10-26T09:59:28;7.90;;;4.22;;
74328;SDS011;62745;51.060;13.786;2022-10-26T10:01:58;10.95;;;4.70;;
74328;SDS011;62745;51.060;13.786;2022-10-26T10:04:24;9.40;;;4.63;;
74328;SDS011;62745;51.060;13.786;2022-10-26T10:07:12;10.07;;;4.55;;
74328;SDS011;62745;51.060;13.786;2022-10-26T10:09:37;7.85;;;3.90;;
74328;SDS011;62745;51.060;13.786;2022-10-26T10:12:02;8.23;;;3.77;;
74328;SDS011;62745;51.060;13.786;2022-10-26T10:14:33;8.05;;;3.30;;
74328;SDS011;62745;51.060;13.786;2022-10-26T10:17:03;8.35;;;3.95;;
74328;SDS011;62745;51.060;13.786;2022-10-26T10:19:34;7.32;;;3.30;;
74328;SDS011;62745;51.060;13.786;2022-10-26T10:22:10;7.65;;;3.97;;
74328;SDS011;62745;51.060;13.786;2022-10-26T10:24:52;6.55;;;3.45;;
74328;SDS011;62745;51.060;13.786;2022-10-26T10:27:20;7.63;;;3.40;;
74328;SDS011;62745;51.060;13.786;2022-10-26T10:29:54;7.22;;;3.65;;
74328;SDS011;62745;51.060;13.786;2022-10-26T10:34:48;6.50;;;3.40;;
74328;SDS011;62745;51.060;13.786;2022-10-26T10:39:55;6.82;;;3.22;;
74328;SDS011;62745;51.060;13.786;2022-10-26T10:42:37;7.50;;;2.67;;
74328;SDS011;62745;51.060;13.786;2022-10-26T10:45:06;8.00;;;2.97;;
74328;SDS011;62745;51.060;13.786;2022-10-26T10:47:42;7.82;;;2.50;;
74328;SDS011;62745;51.060;13.786;2022-10-26T10:50:26;5.38;;;2.33;;
74328;SDS011;62745;51.060;13.786;2022-10-26T10:53:10;4.97;;;2.20;;
74328;SDS011;62745;51.060;13.786;2022-10-26T10:55:38;5.47;;;2.28;;
74328;SDS011;62745;51.060;13.786;2022-10-26T11:00:36;4.68;;;1.80;;
74328;SDS011;62745;51.060;13.786;2022-10-26T11:08:26;6.55;;;1.92;;
74328;SDS011;62745;51.060;13.786;2022-10-26T11:11:03;11.80;;;2.00;;
74328;SDS011;62745;51.060;13.786;2022-10-26T11:16:05;10.35;;;1.80;;
74328;SDS011;62745;51.060;13.786;2022-10-26T11:18:38;6.20;;;1.92;;
74328;SDS011;62745;51.060;13.786;2022-10-26T11:21:22;6.28;;;1.65;;
74328;SDS011;62745;51.060;13.786;2022-10-26T11:31:24;4.00;;;1.40;;
74328;SDS011;62745;51.060;13.786;2022-10-26T11:34:20;6.55;;;1.58;;
74328;SDS011;62745;51.060;13.786;2022-10-26T11:36:54;5.57;;;1.60;;
74328;SDS011;62745;51.060;13.786;2022-10-26T11:39:30;5.38;;;1.50;;
74328;SDS011;62745;51.060;13.786;2022-10-26T11:45:03;7.85;;;1.52;;
74328;SDS011;62745;51.060;13.786;2022-10-26T11:47:36;5.65;;;1.27;;
74328;SDS011;62745;51.060;13.786;2022-10-26T11:53:00;4.35;;;1.40;;
74328;SDS011;62745;51.060;13.786;2022-10-26T11:55:29;4.05;;;1.40;;
74328;SDS011;62745;51.060;13.786;2022-10-26T11:57:55;4.38;;;1.40;;
74328;SDS011;62745;51.060;13.786;2022-10-26T12:00:22;4.93;;;1.40;;
74328;SDS011;62745;51.060;13.786;2022-10-26T12:08:07;4.43;;;1.48;;
74328;SDS011;62745;51.060;13.786;2022-10-26T12:10:39;4.95;;;1.50;;
74328;SDS011;62745;51.060;13.786;2022-10-26T12:13:14;3.83;;;1.60;;
74328;SDS011;62745;51.060;13.786;2022-10-26T12:16:03;5.20;;;1.50;;
74328;SDS011;62745;51.060;13.786;2022-10-26T12:18:40;6.10;;;1.55;;
74328;SDS011;62745;51.060;13.786;2022-10-26T12:21:20;3.85;;;1.50;;
74328;SDS011;62745;51.060;13.786;2022-10-26T12:23:55;4.63;;;1.40;;
74328;SDS011;62745;51.060;13.786;2022-10-26T12:27:02;5.20;;;1.48;;
74328;SDS011;62745;51.060;13.786;2022-10-26T12:29:33;3.97;;;1.30;;
74328;SDS011;62745;51.060;13.786;2022-10-26T12:34:57;3.75;;;1.70;;
74328;SDS011;62745;51.060;13.786;2022-10-26T12:39:53;5.75;;;1.45;;
74328;SDS011;62745;51.060;13.786;2022-10-26T12:52:33;4.00;;;1.45;;
74328;SDS011;62745;51.060;13.786;2022-10-26T13:00:40;4.57;;;1.30;;
74328;SDS011;62745;51.060;13.786;2022-10-26T13:08:46;3.97;;;1.20;;
74328;SDS011;62745;51.060;13.786;2022-10-26T13:11:19;4.95;;;1.50;;
74328;SDS011;62745;51.060;13.786;2022-10-26T13:13:55;5.47;;;0.90;;
74328;SDS011;62745;51.060;13.786;2022-10-26T13:16:31;4.65;;;1.00;;
74328;SDS011;62745;51.060;13.786;2022-10-26T13:18:58;3.10;;;0.85;;
74328;SDS011;62745;51.060;13.786;2022-10-26T13:21:25;4.90;;;1.20;;
74328;SDS011;62745;51.060;13.786;2022-10-26T13:26:17;3.03;;;1.10;;
74328;SDS011;62745;51.060;13.786;2022-10-26T13:28:49;2.60;;;0.90;;
74328;SDS011;62745;51.060;13.786;2022-10-26T13:33:49;3.60;;;1.10;;
74328;SDS011;62745;51.060;13.786;2022-10-26T13:36:26;3.30;;;1.33;;
74328;SDS011;62745;51.060;13.786;2022-10-26T13:38:57;5.03;;;1.52;;
74328;SDS011;62745;51.060;13.786;2022-10-26T13:41:37;5.68;;;1.25;;
74328;SDS011;62745;51.060;13.786;2022-10-26T13:44:09;4.30;;;1.60;;
74328;SDS011;62745;51.060;13.786;2022-10-26T13:46:43;6.85;;;1.50;;
74328;SDS011;62745;51.060;13.786;2022-10-26T13:49:18;5.25;;;1.52;;
74328;SDS011;62745;51.060;13.786;2022-10-26T13:51:49;6.28;;;1.92;;
74328;SDS011;62745;51.060;13.786;2022-10-26T13:54:22;5.25;;;1.80;;
74328;SDS011;62745;51.060;13.786;2022-10-26T13:59:49;4.60;;;1.50;;
74328;SDS011;62745;51.060;13.786;2022-10-26T14:02:24;6.20;;;1.65;;
74328;SDS011;62745;51.060;13.786;2022-10-26T14:05:02;5.40;;;1.52;;
74328;SDS011;62745;51.060;13.786;2022-10-26T14:07:51;8.68;;;2.28;;
74328;SDS011;62745;51.060;13.786;2022-10-26T14:10:35;6.18;;;1.88;;
74328;SDS011;62745;51.060;13.786;2022-10-26T14:13:06;5.25;;;1.80;;
74328;SDS011;62745;51.060;13.786;2022-10-26T14:15:34;6.22;;;1.73;;
74328;SDS011;62745;51.060;13.786;2022-10-26T14:18:02;4.95;;;1.98;;
74328;SDS011;62745;51.060;13.786;2022-10-26T14:20:29;5.63;;;2.00;;
74328;SDS011;62745;51.060;13.786;2022-10-26T14:22:56;5.72;;;2.00;;
74328;SDS011;62745;51.060;13.786;2022-10-26T14:25:24;6.28;;;1.90;;
74328;SDS011;62745;51.060;13.786;2022-10-26T14:27:51;4.85;;;2.05;;
74328;SDS011;62745;51.060;13.786;2022-10-26T14:32:55;4.93;;;1.77;;
74328;SDS011;62745;51.060;13.786;2022-10-26T14:35:22;4.28;;;1.67;;
74328;SDS011;62745;51.060;13.786;2022-10-26T14:37:50;4.38;;;1.90;;
74328;SDS011;62745;51.060;13.786;2022-10-26T14:40:21;4.53;;;2.30;;
74328;SDS011;62745;51.060;13.786;2022-10-26T14:42:50;6.03;;;1.77;;
74328;SDS011;62745;51.060;13.786;2022-10-26T14:45:21;6.68;;;1.85;;
74328;SDS011;62745;51.060;13.786;2022-10-26T14:47:52;4.80;;;1.83;;
74328;SDS011;62745;51.060;13.786;2022-10-26T14:50:19;6.60;;;1.88;;
74328;SDS011;62745;51.060;13.786;2022-10-26T14:52:50;6.78;;;1.90;;
74328;SDS011;62745;51.060;13.786;2022-10-26T14:55:19;4.47;;;1.90;;
74328;SDS011;62745;51.060;13.786;2022-10-26T14:57:45;5.47;;;1.85;;
74328;SDS011;62745;51.060;13.786;2022-10-26T15:00:14;7.80;;;1.80;;
74328;SDS011;62745;51.060;13.786;2022-10-26T15:02:42;6.20;;;2.00;;
74328;SDS011;62745;51.060;13.786;2022-10-26T15:07:56;6.18;;;1.80;;
74328;SDS011;62745;51.060;13.786;2022-10-26T15:15:34;6.15;;;2.35;;
74328;SDS011;62745;51.060;13.786;2022-10-26T15:18:00;5.93;;;2.30;;
74328;SDS011;62745;51.060;13.786;2022-10-26T15:20:27;6.20;;;2.25;;
74328;SDS011;62745;51.060;13.786;2022-10-26T15:22:54;7.38;;;2.03;;
74328;SDS011;62745;51.060;13.786;2022-10-26T15:25:27;5.43;;;2.55;;
74328;SDS011;62745;51.060;13.786;2022-10-26T15:31:04;7.28;;;2.25;;
74328;SDS011;62745;51.060;13.786;2022-10-26T15:33:36;6.78;;;2.50;;
74328;SDS011;62745;51.060;13.786;2022-10-26T15:36:08;8.38;;;2.92;;
74328;SDS011;62745;51.060;13.786;2022-10-26T15:38:36;6.97;;;2.83;;
74328;SDS011;62745;51.060;13.786;2022-10-26T15:41:02;5.10;;;2.47;;
74328;SDS011;62745;51.060;13.786;2022-10-26T15:43:28;5.82;;;2.70;;
74328;SDS011;62745;51.060;13.786;2022-10-26T15:45:53;7.57;;;3.42;;
74328;SDS011;62745;51.060;13.786;2022-10-26T15:48:24;6.75;;;3.08;;
74328;SDS011;62745;51.060;13.786;2022-10-26T15:50:53;7.40;;;2.72;;
74328;SDS011;62745;51.060;13.786;2022-10-26T15:53:21;6.43;;;3.20;;
74328;SDS011;62745;51.060;13.786;2022-10-26T15:55:51;9.43;;;3.15;;
74328;SDS011;62745;51.060;13.786;2022-10-26T15:58:19;8.35;;;3.30;;
74328;SDS011;62745;51.060;13.786;2022-10-26T16:00:44;9.18;;;4.30;;
74328;SDS011;62745;51.060;13.786;2022-10-26T16:03:13;8.43;;;3.67;;
74328;SDS011;62745;51.060;13.786;2022-10-26T16:05:41;8.32;;;4.43;;
74328;SDS011;62745;51.060;13.786;2022-10-26T16:08:13;8.30;;;4.30;;
74328;SDS011;62745;51.060;13.786;2022-10-26T16:10:41;7.30;;;3.42;;
74328;SDS011;62745;51.060;13.786;2022-10-26T16:13:16;10.48;;;3.85;;
74328;SDS011;62745;51.060;13.786;2022-10-26T16:15:41;9.25;;;3.95;;
74328;SDS011;62745;51.060;13.786;2022-10-26T16:18:06;9.30;;;4.30;;
74328;SDS011;62745;51.060;13.786;2022-10-26T16:20:32;10.05;;;4.47;;
74328;SDS011;62745;51.060;13.786;2022-10-26T16:22:57;8.13;;;4.30;;
74328;SDS011;62745;51.060;13.786;2022-10-26T16:25:25;11.23;;;4.65;;
74328;SDS011;62745;51.060;13.786;2022-10-26T16:27:52;8.77;;;4.43;;
74328;SDS011;62745;51.060;13.786;2022-10-26T16:30:18;7.13;;;3.92;;
74328;SDS011;62745;51.060;13.786;2022-10-26T16:32:44;14.40;;;5.22;;
74328;SDS011;62745;51.060;13.786;2022-10-26T16:35:10;11.20;;;4.80;;
74328;SDS011;62745;51.060;13.786;2022-10-26T16:37:36;9.00;;;3.90;;
74328;SDS011;62745;51.060;13.786;2022-10-26T16:40:02;9.13;;;4.82;;
74328;SDS011;62745;51.060;13.786;2022-10-26T16:42:29;10.52;;;4.45;;
74328;SDS011;62745;51.060;13.786;2022-10-26T16:44:55;8.57;;;4.60;;
74328;SDS011;62745;51.060;13.786;2022-10-26T16:47:20;10.30;;;4.37;;
74328;SDS011;62745;51.060;13.786;2022-10-26T16:49:45;9.30;;;4.97;;
74328;SDS011;62745;51.060;13.786;2022-10-26T16:52:11;8.20;;;4.40;;
74328;SDS011;62745;51.060;13.786;2022-10-26T16:54:37;10.38;;;5.28;;
74328;SDS011;62745;51.060;13.786;2022-10-26T16:57:02;10.15;;;5.13;;
74328;SDS011;62745;51.060;13.786;2022-10-26T16:59:27;10.82;;;5.07;;
74328;SDS011;62745;51.060;13.786;2022-10-26T17:01:53;11.27;;;4.87;;
74328;SDS011;62745;51.060;13.786;2022-10-26T17:04:18;8.63;;;5.05;;
74328;SDS011;62745;51.060;13.786;2022-10-26T17:06:43;11.23;;;5.40;;